Time;durP1;ratioP1;P1;durP2;ratioP2;P2;SDS_P1;SDS_P2;PMS_P1;PMS_P2;Temp;Humidity;BMP_temperature;BMP_pressure;BME280_temperature;BME280_humidity;BME280_pressure;Samples;Min_cycle;Max_cycle;Signal;HPM_P1;HPM_P2
2020/12/18 00:01:02;;;;;;;9.02;4.70;;;4.80;1.00;;;;;;5077964;28;20192;-76
2020/12/18 00:03:28;;;;;;;10.55;5.85;;;4.80;1.00;;;;;;5093779;28;20177;-75
2020/12/18 00:05:56;;;;;;;11.90;5.00;;;4.80;1.00;;;;;;5097905;28;20166;-75
2020/12/18 00:08:44;;;;;;;8.52;5.60;;;4.80;1.00;;;;;;5093013;28;20179;-75
2020/12/18 00:11:10;;;;;;;10.05;5.97;;;4.80;1.00;;;;;;5077553;28;20167;-75
2020/12/18 00:13:35;;;;;;;13.67;5.10;;;4.80;1.00;;;;;;5077042;28;20278;-75
2020/12/18 00:16:01;;;;;;;7.93;4.73;;;4.80;1.00;;;;;;5078798;28;20417;-76
2020/12/18 00:18:44;;;;;;;7.40;4.60;;;4.80;1.00;;;;;;5092303;28;20243;-77
2020/12/18 00:21:26;;;;;;;12.88;5.88;;;4.90;1.00;;;;;;5077080;28;20167;-77
2020/12/18 00:23:52;;;;;;;17.27;4.85;;;4.90;1.00;;;;;;5077326;28;20167;-77
2020/12/18 00:26:18;;;;;;;10.35;5.85;;;4.90;1.00;;;;;;5085772;28;20178;-77
2020/12/18 00:28:45;;;;;;;10.10;5.47;;;4.90;1.00;;;;;;5097285;28;20162;-77
2020/12/18 00:31:29;;;;;;;14.32;5.85;;;5.00;1.00;;;;;;5086177;28;20171;-76
2020/12/18 00:34:14;;;;;;;12.05;5.75;;;5.00;1.00;;;;;;5081572;28;20259;-77
2020/12/18 00:37:14;;;;;;;10.07;5.35;;;5.00;1.00;;;;;;5097346;28;20170;-77
2020/12/18 00:40:03;;;;;;;8.63;5.22;;;5.00;1.00;;;;;;5097381;28;20169;-77
2020/12/18 00:42:32;;;;;;;14.25;5.78;;;5.10;1.00;;;;;;5090187;28;20167;-77
2020/12/18 00:45:02;;;;;;;14.73;7.13;;;5.10;1.00;;;;;;5076628;28;20171;-77
2020/12/18 00:47:44;;;;;;;11.73;6.35;;;5.10;1.00;;;;;;5089313;28;20178;-77
2020/12/18 00:50:14;;;;;;;13.88;5.60;;;5.20;1.00;;;;;;5076707;28;20598;-77
2020/12/18 00:52:44;;;;;;;8.02;4.93;;;5.20;1.00;;;;;;5076769;28;20218;-77
2020/12/18 00:55:14;;;;;;;17.55;5.95;;;5.20;1.00;;;;;;5092551;28;20197;-77
2020/12/18 00:57:44;;;;;;;18.05;5.90;;;5.20;1.00;;;;;;5085022;28;20624;-77
2020/12/18 01:00:16;;;;;;;9.82;5.50;;;5.10;1.00;;;;;;5075972;28;20240;-77
2020/12/18 01:03:14;;;;;;;14.60;6.13;;;5.20;1.00;;;;;;5076972;28;20628;-77
2020/12/18 01:05:44;;;;;;;11.73;5.57;;;5.20;1.00;;;;;;5077099;28;20245;-78
2020/12/18 01:08:14;;;;;;;13.15;6.90;;;5.30;1.00;;;;;;5075997;28;20617;-77
2020/12/18 01:10:44;;;;;;;13.00;6.03;;;5.30;1.00;;;;;;5076200;28;20171;-77
2020/12/18 01:13:38;;;;;;;10.38;6.05;;;5.30;1.00;;;;;;5080911;28;20721;-77
2020/12/18 01:16:15;;;;;;;10.00;5.38;;;5.30;1.00;;;;;;5091797;28;20194;-78
2020/12/18 01:19:14;;;;;;;9.50;5.60;;;5.20;1.00;;;;;;5095614;28;20571;-77
2020/12/18 01:21:39;;;;;;;9.32;5.05;;;5.20;1.00;;;;;;5089707;28;20175;-77
2020/12/18 01:24:20;;;;;;;13.97;6.37;;;5.20;1.00;;;;;;5076025;28;20179;-77
2020/12/18 01:26:48;;;;;;;18.10;5.80;;;5.20;1.00;;;;;;5086759;28;20178;-77
2020/12/18 01:29:20;;;;;;;11.10;5.60;;;5.20;1.00;;;;;;5096254;28;20536;-77
2020/12/18 01:32:08;;;;;;;10.10;5.50;;;5.20;1.00;;;;;;5081813;28;20175;-77
2020/12/18 01:34:45;;;;;;;15.10;6.07;;;5.20;1.00;;;;;;5087594;28;20292;-77
2020/12/18 01:37:32;;;;;;;10.55;5.93;;;5.20;1.00;;;;;;5090243;28;20570;-77
2020/12/18 01:40:08;;;;;;;10.90;5.72;;;5.20;1.00;;;;;;5095867;28;20163;-77
2020/12/18 01:42:44;;;;;;;9.05;5.05;;;5.20;1.00;;;;;;5095878;28;20639;-77
2020/12/18 01:45:44;;;;;;;13.20;5.90;;;5.20;1.00;;;;;;5095808;28;20613;-77
2020/12/18 01:48:20;;;;;;;13.30;5.45;;;5.30;1.00;;;;;;5094434;28;20167;-77
2020/12/18 01:51:14;;;;;;;11.65;6.53;;;5.30;1.00;;;;;;5076316;28;20171;-77
2020/12/18 01:54:08;;;;;;;11.18;5.85;;;5.30;1.00;;;;;;5075619;28;20191;-77
2020/12/18 01:57:13;;;;;;;18.73;5.72;;;5.30;1.00;;;;;;5075545;28;20160;-77
2020/12/18 01:59:39;;;;;;;10.00;5.50;;;5.40;1.00;;;;;;5091971;28;20205;-77
2020/12/18 02:02:16;;;;;;;12.47;5.67;;;5.40;1.00;;;;;;5090626;28;20202;-75
2020/12/18 02:04:45;;;;;;;9.05;5.70;;;5.40;1.00;;;;;;5075203;28;20249;-75
2020/12/18 02:07:24;;;;;;;13.45;6.50;;;5.40;1.00;;;;;;5075009;28;20155;-75
2020/12/18 02:09:51;;;;;;;19.33;6.40;;;5.50;1.00;;;;;;5077090;28;20261;-75
2020/12/18 02:12:18;;;;;;;17.23;6.85;;;5.50;1.00;;;;;;5095190;28;20998;-75
2020/12/18 02:14:47;;;;;;;15.65;7.05;;;5.60;1.00;;;;;;5095382;28;20373;-75
2020/12/18 02:17:15;;;;;;;14.87;6.67;;;5.60;1.00;;;;;;5090986;28;20162;-76
2020/12/18 02:20:14;;;;;;;15.35;6.82;;;5.60;1.00;;;;;;5090153;28;20903;-77
2020/12/18 02:22:44;;;;;;;11.30;5.78;;;5.60;1.00;;;;;;5076385;28;20229;-77
2020/12/18 02:25:11;;;;;;;10.52;5.85;;;5.60;1.00;;;;;;5086533;28;20715;-77
2020/12/18 02:27:38;;;;;;;9.00;5.72;;;5.60;1.00;;;;;;5094749;28;20288;-77
2020/12/18 02:30:44;;;;;;;11.55;6.22;;;5.60;1.00;;;;;;5093210;28;20170;-77
2020/12/18 02:33:20;;;;;;;10.18;5.50;;;5.60;1.00;;;;;;5095472;28;20187;-77
2020/12/18 02:35:58;;;;;;;18.35;8.65;;;5.60;1.00;;;;;;5091387;28;20620;-77
2020/12/18 02:38:34;;;;;;;112.45;41.47;;;5.60;1.00;;;;;;5075462;28;20159;-77
2020/12/18 02:41:00;;;;;;;10.88;6.28;;;5.50;1.00;;;;;;5104073;28;20174;-77
2020/12/18 02:44:14;;;;;;;101.07;32.33;;;5.50;1.00;;;;;;5074246;28;20166;-77
2020/12/18 02:46:50;;;;;;;10.32;5.35;;;5.50;1.00;;;;;;5082350;28;20178;-77
2020/12/18 02:49:26;;;;;;;9.95;5.75;;;5.40;1.00;;;;;;5074705;28;20175;-77
2020/12/18 02:52:31;;;;;;;9.77;5.70;;;5.40;1.00;;;;;;5074459;28;20183;-77
2020/12/18 02:55:14;;;;;;;9.10;5.20;;;5.40;1.00;;;;;;5084913;28;20167;-77
2020/12/18 02:57:44;;;;;;;19.13;9.88;;;5.30;1.00;;;;;;5094618;28;20680;-77
2020/12/18 03:00:14;;;;;;;81.22;25.40;;;5.40;1.00;;;;;;5094758;28;20472;-77
2020/12/18 03:06:14;;;;;;;9.80;5.47;;;5.40;1.00;;;;;;5092453;28;20223;-77
2020/12/18 03:09:14;;;;;;;26.60;6.88;;;5.30;1.00;;;;;;5094658;28;20249;-77
2020/12/18 03:11:44;;;;;;;16.02;7.30;;;5.30;1.00;;;;;;5094556;28;20216;-77
2020/12/18 03:14:10;;;;;;;14.98;6.03;;;5.40;1.00;;;;;;5080034;28;20170;-77
2020/12/18 03:16:44;;;;;;;18.57;7.47;;;5.40;1.00;;;;;;5079150;28;20242;-77
2020/12/18 03:19:11;;;;;;;11.77;6.75;;;5.40;1.00;;;;;;5074122;28;20189;-77
2020/12/18 03:21:50;;;;;;;11.85;6.70;;;5.40;1.00;;;;;;5073197;28;20171;-77
2020/12/18 03:24:44;;;;;;;19.23;8.70;;;5.40;1.00;;;;;;5072584;28;20235;-77
2020/12/18 03:27:09;;;;;;;22.02;8.65;;;5.50;1.00;;;;;;5073924;28;20462;-77
2020/12/18 03:29:44;;;;;;;12.57;7.10;;;5.50;1.00;;;;;;5073593;28;20175;-77
2020/12/18 03:32:32;;;;;;;21.17;8.35;;;5.60;1.00;;;;;;5073855;28;20198;-77
2020/12/18 03:34:58;;;;;;;31.13;8.65;;;5.70;1.00;;;;;;5075063;28;20209;-75
2020/12/18 03:37:33;;;;;;;25.33;8.60;;;5.80;1.00;;;;;;5073833;28;20171;-75
2020/12/18 03:40:20;;;;;;;50.95;10.35;;;5.80;1.00;;;;;;5073760;28;20606;-75
2020/12/18 03:42:46;;;;;;;45.85;10.25;;;5.90;1.00;;;;;;5090006;28;20178;-75
2020/12/18 03:45:12;;;;;;;27.57;10.40;;;5.90;1.00;;;;;;5088543;28;20196;-75
2020/12/18 03:47:44;;;;;;;29.03;9.93;;;6.00;1.00;;;;;;5093999;28;20624;-75
2020/12/18 03:50:14;;;;;;;27.45;10.57;;;6.00;1.00;;;;;;5078559;28;20518;-77
2020/12/18 03:52:44;;;;;;;38.22;11.05;;;6.20;1.00;;;;;;5091648;28;20226;-77
2020/12/18 03:56:02;;;;;;;38.83;12.25;;;6.20;1.00;;;;;;5092707;28;20524;-77
2020/12/18 03:58:56;;;;;;;41.67;9.27;;;6.20;1.00;;;;;;5092559;28;20157;-77
2020/12/18 04:01:24;;;;;;;29.80;11.50;;;6.20;1.00;;;;;;5074057;28;20212;-78
2020/12/18 04:03:49;;;;;;;49.28;11.45;;;6.20;1.00;;;;;;5073705;28;20163;-75
2020/12/18 04:06:26;;;;;;;26.77;11.50;;;6.40;1.00;;;;;;5073735;28;20163;-75
2020/12/18 04:09:14;;;;;;;23.25;11.00;;;6.40;1.00;;;;;;5079275;28;20652;-75
2020/12/18 04:11:44;;;;;;;21.67;11.30;;;6.40;1.00;;;;;;5073323;28;20175;-74
2020/12/18 04:14:10;;;;;;;24.48;10.48;;;6.40;1.00;;;;;;5073625;28;20517;-75
2020/12/18 04:16:36;;;;;;;23.83;10.70;;;6.40;1.00;;;;;;5073747;28;20217;-75
2020/12/18 04:19:09;;;;;;;38.73;10.70;;;6.40;1.00;;;;;;5089356;28;20819;-75
2020/12/18 04:21:34;;;;;;;31.00;11.47;;;6.50;1.00;;;;;;5073336;28;20167;-75
2020/12/18 04:24:02;;;;;;;29.30;12.10;;;6.50;1.00;;;;;;5073241;28;20930;-75
2020/12/18 04:26:32;;;;;;;36.13;13.30;;;6.50;1.00;;;;;;5073067;28;20198;-75
2020/12/18 04:29:08;;;;;;;29.70;11.53;;;6.60;1.00;;;;;;5073191;28;20518;-75
2020/12/18 04:31:38;;;;;;;27.63;11.70;;;6.60;1.00;;;;;;5073418;28;20887;-75
2020/12/18 04:34:04;;;;;;;28.93;11.73;;;6.70;1.00;;;;;;5094221;28;20981;-75
2020/12/18 04:36:30;;;;;;;26.73;11.90;;;;;;;;;;5091982;28;20447;-75
2020/12/18 04:39:05;;;;;;;27.90;12.87;;;6.70;1.00;;;;;;5084050;28;20183;-75
2020/12/18 04:41:33;;;;;;;34.30;14.37;;;6.70;1.00;;;;;;5087140;28;20472;-75
2020/12/18 04:44:02;;;;;;;31.27;11.60;;;6.70;1.00;;;;;;5085086;28;20425;-76
2020/12/18 04:46:30;;;;;;;23.90;10.87;;;6.70;1.00;;;;;;5096069;28;20410;-75
2020/12/18 04:49:03;;;;;;;36.87;11.30;;;6.70;1.00;;;;;;5091326;28;20413;-75
2020/12/18 04:51:29;;;;;;;37.97;11.60;;;6.70;1.00;;;;;;5097210;28;20484;-75
2020/12/18 04:54:07;;;;;;;28.00;11.73;;;6.70;1.00;;;;;;5093962;28;20590;-75
2020/12/18 04:56:39;;;;;;;30.03;9.70;;;6.70;1.00;;;;;;5076623;28;20450;-76
2020/12/18 04:59:06;;;;;;;32.00;12.80;;;6.70;1.00;;;;;;5076345;28;20413;-75
2020/12/18 05:01:38;;;;;;;26.27;11.53;;;7.80;1.00;;;;;;5091604;28;20418;-75
2020/12/18 05:04:16;;;;;;;26.70;11.93;;;6.80;1.00;;;;;;5095016;28;21068;-77
2020/12/18 05:06:50;;;;;;;61.93;24.47;;;6.80;1.00;;;;;;5076613;28;20745;-77
2020/12/18 05:09:38;;;;;;;29.43;12.93;;;6.80;1.00;;;;;;5075735;28;20420;-77
2020/12/18 05:12:14;;;;;;;36.97;16.25;;;6.80;1.00;;;;;;5074882;28;20430;-78
2020/12/18 05:14:56;;;;;;;38.00;14.87;;;6.90;1.00;;;;;;5076591;28;20170;-77
2020/12/18 05:17:22;;;;;;;29.43;12.83;;;6.90;1.00;;;;;;5076112;28;20872;-77
2020/12/18 05:20:02;;;;;;;25.83;12.00;;;6.90;1.00;;;;;;5076605;28;20389;-75
2020/12/18 05:22:28;;;;;;;37.80;13.07;;;6.90;1.00;;;;;;5076004;28;20159;-75
2020/12/18 05:24:54;;;;;;;25.07;11.90;;;6.90;1.00;;;;;;5081934;28;20424;-75
2020/12/18 05:27:24;;;;;;;25.57;10.00;;;6.80;1.00;;;;;;5076735;28;20282;-75
2020/12/18 05:29:52;;;;;;;30.03;12.90;;;8.60;1.00;;;;;;5074747;28;20778;-75
2020/12/18 05:32:17;;;;;;;24.40;11.97;;;6.80;1.00;;;;;;5084611;28;20443;-74
2020/12/18 05:34:45;;;;;;;29.30;13.57;;;;;;;;;;5081968;28;20720;-75
2020/12/18 05:37:15;;;;;;;28.43;13.40;;;6.80;1.00;;;;;;5085263;28;20171;-75
2020/12/18 05:39:57;;;;;;;38.53;9.97;;;6.90;1.00;;;;;;5080106;28;20425;-75
2020/12/18 05:42:26;;;;;;;25.63;10.27;;;6.90;1.00;;;;;;5083727;28;20432;-75
2020/12/18 05:45:11;;;;;;;30.43;12.00;;;6.90;1.00;;;;;;5077071;28;20508;-75
2020/12/18 05:47:56;;;;;;;27.60;12.53;;;6.90;1.00;;;;;;5075609;28;20410;-75
2020/12/18 05:50:27;;;;;;;26.13;12.43;;;7.00;1.00;;;;;;5082346;28;20463;-75
2020/12/18 05:53:12;;;;;;;29.17;12.53;;;7.00;1.00;;;;;;5085434;28;20837;-75
2020/12/18 05:55:42;;;;;;;37.70;14.10;;;6.90;1.00;;;;;;5089445;28;20408;-75
2020/12/18 05:58:14;;;;;;;31.20;13.13;;;6.90;1.00;;;;;;5114475;28;20470;-75
2020/12/18 06:00:41;;;;;;;30.43;12.50;;;6.90;1.00;;;;;;5101003;28;20480;-75
2020/12/18 06:06:39;;;;;;;31.00;12.33;;;7.00;1.00;;;;;;5074508;28;21377;-75
2020/12/18 06:09:10;;;;;;;26.73;11.53;;;7.00;1.00;;;;;;5075133;28;20480;-75
2020/12/18 06:11:36;;;;;;;28.07;12.33;;;6.90;1.00;;;;;;5080562;28;20821;-75
2020/12/18 06:14:11;;;;;;;29.37;12.27;;;7.00;1.00;;;;;;5084664;28;20477;-76
2020/12/18 06:16:42;;;;;;;43.40;13.60;;;7.10;1.00;;;;;;5085947;28;20919;-75
2020/12/18 06:19:10;;;;;;;36.70;12.93;;;7.00;1.00;;;;;;5095498;28;20408;-76
2020/12/18 06:21:38;;;;;;;31.30;13.60;;;7.10;1.00;;;;;;5095146;28;20409;-74
2020/12/18 06:24:04;;;;;;;25.60;12.33;;;7.00;1.00;;;;;;5094979;28;20404;-75
2020/12/18 06:26:31;;;;;;;34.27;11.93;;;7.00;1.00;;;;;;5076449;28;20412;-74
2020/12/18 06:29:05;;;;;;;39.90;11.60;;;7.00;1.00;;;;;;5075649;28;20433;-74
2020/12/18 06:31:32;;;;;;;26.23;10.73;;;7.00;1.00;;;;;;5082376;28;20464;-74
2020/12/18 06:34:05;;;;;;;32.40;11.63;;;8.60;1.00;;;;;;5088312;28;20451;-75
2020/12/18 06:36:57;;;;;;;29.67;11.13;;;7.00;1.00;;;;;;5078438;28;20425;-76
2020/12/18 06:39:29;;;;;;;28.23;12.40;;;6.90;1.00;;;;;;5077832;28;20432;-76
2020/12/18 06:42:32;;;;;;;24.27;11.47;;;6.90;1.00;;;;;;5086600;28;20417;-77
2020/12/18 06:45:20;;;;;;;57.20;11.47;;;6.90;1.00;;;;;;5103320;28;20403;-77
2020/12/18 06:47:50;;;;;;;41.13;10.97;;;6.80;1.00;;;;;;5103456;28;20465;-77
2020/12/18 06:50:22;;;;;;;30.23;10.70;;;6.90;1.00;;;;;;5115501;28;20387;-75
2020/12/18 06:52:58;;;;;;;55.97;10.23;;;6.80;1.00;;;;;;5107855;28;20448;-74
2020/12/18 06:55:26;;;;;;;33.43;11.60;;;6.80;1.00;;;;;;5087540;28;20919;-74
2020/12/18 06:58:10;;;;;;;23.10;9.23;;;6.80;1.00;;;;;;5073856;28;20386;-74
2020/12/18 07:00:52;;;;;;;40.87;10.53;;;6.70;1.00;;;;;;5074194;28;20953;-75
2020/12/18 07:03:41;;;;;;;25.10;9.90;;;6.70;1.00;;;;;;5074787;28;20413;-74
2020/12/18 07:06:11;;;;;;;22.40;8.93;;;6.60;1.00;;;;;;5074406;28;20464;-77
2020/12/18 07:08:46;;;;;;;25.77;9.83;;;6.60;1.00;;;;;;5073922;28;20888;-77
2020/12/18 07:11:16;;;;;;;24.43;9.27;;;6.50;1.00;;;;;;5074013;28;20941;-77
2020/12/18 07:13:47;;;;;;;48.00;9.83;;;6.40;1.00;;;;;;5075708;28;20433;-76
2020/12/18 07:16:18;;;;;;;27.87;10.20;;;6.40;1.00;;;;;;5093495;28;20389;-77
2020/12/18 07:18:44;;;;;;;49.77;9.00;;;6.40;1.00;;;;;;5093149;28;20944;-78
2020/12/18 07:21:12;;;;;;;37.07;9.10;;;6.30;1.00;;;;;;5092309;28;20911;-75
2020/12/18 07:23:43;;;;;;;46.07;9.83;;;6.60;1.00;;;;;;5082925;28;20412;-75
2020/12/18 07:26:10;;;;;;;37.58;8.25;;;6.20;1.00;;;;;;5093036;28;20458;-74
2020/12/18 07:28:37;;;;;;;19.17;8.57;;;6.20;1.00;;;;;;5093035;28;20312;-74
2020/12/18 07:31:05;;;;;;;19.33;9.13;;;6.20;1.00;;;;;;5081953;28;20448;-74
2020/12/18 07:33:31;;;;;;;27.53;8.70;;;6.30;1.00;;;;;;5072857;28;20448;-75
2020/12/18 07:35:57;;;;;;;15.90;8.80;;;6.30;1.00;;;;;;5093019;28;20766;-77
2020/12/18 07:38:34;;;;;;;26.93;9.87;;;6.30;1.00;;;;;;5092207;28;20257;-77
2020/12/18 07:41:03;;;;;;;38.17;8.80;;;6.40;1.00;;;;;;5093066;28;20502;-77
2020/12/18 07:43:30;;;;;;;15.93;7.73;;;6.30;1.00;;;;;;5076865;28;20487;-78
2020/12/18 07:45:58;;;;;;;17.67;8.80;;;6.30;1.00;;;;;;5093086;28;20754;-77
2020/12/18 07:48:31;;;;;;;19.35;8.48;;;6.30;1.00;;;;;;5078563;28;20508;-77
2020/12/18 07:51:00;;;;;;;29.53;9.27;;;6.30;1.00;;;;;;5072826;28;20235;-77
2020/12/18 07:53:27;;;;;;;23.70;9.10;;;6.30;1.00;;;;;;5072331;28;20524;-77
2020/12/18 07:56:07;;;;;;;19.97;9.00;;;6.30;1.00;;;;;;5081680;28;20445;-77
2020/12/18 07:58:35;;;;;;;54.07;9.17;;;6.30;1.00;;;;;;5090366;28;20407;-77
2020/12/18 08:01:08;;;;;;;27.13;8.97;;;6.30;1.00;;;;;;5088221;28;20881;-77
2020/12/18 08:03:36;;;;;;;23.23;7.50;;;6.30;1.00;;;;;;5072725;28;20747;-77
2020/12/18 08:06:05;;;;;;;33.50;8.67;;;6.20;1.00;;;;;;5077811;28;20413;-74
2020/12/18 08:08:34;;;;;;;29.90;8.30;;;6.30;1.00;;;;;;5093858;28;20452;-75
2020/12/18 08:11:03;;;;;;;25.60;7.93;;;6.30;1.00;;;;;;5080372;28;20433;-75
2020/12/18 08:13:31;;;;;;;23.20;8.40;;;6.20;1.00;;;;;;5088127;28;20451;-79
2020/12/18 08:16:16;;;;;;;30.23;8.70;;;6.30;1.00;;;;;;5117059;27;20921;-74
2020/12/18 08:18:51;;;;;;;24.00;6.97;;;6.30;1.00;;;;;;5100500;27;20454;-74
2020/12/18 08:21:33;;;;;;;19.40;8.67;;;6.30;1.00;;;;;;5097390;28;20398;-74
2020/12/18 08:24:07;;;;;;;36.45;8.57;;;6.40;1.00;;;;;;5095563;28;20910;-74
2020/12/18 08:26:44;;;;;;;31.20;8.57;;;6.30;1.00;;;;;;5096457;28;20170;-74
2020/12/18 08:29:11;;;;;;;15.20;8.87;;;6.40;1.00;;;;;;5095929;28;21023;-74
2020/12/18 08:31:41;;;;;;;30.20;9.80;;;6.50;1.00;;;;;;5076882;28;20809;-74
2020/12/18 08:34:09;;;;;;;24.17;8.90;;;6.50;1.00;;;;;;5076002;28;20486;-74
2020/12/18 08:36:46;;;;;;;29.57;9.03;;;6.60;1.00;;;;;;5076633;28;20429;-74
2020/12/18 08:39:14;;;;;;;20.93;8.30;;;6.60;1.00;;;;;;5076097;28;20402;-74
2020/12/18 08:41:54;;;;;;;25.93;10.00;;;6.70;1.00;;;;;;5075994;28;20389;-74
2020/12/18 08:44:28;;;;;;;22.23;9.10;;;6.80;1.00;;;;;;5085590;28;20937;-74
2020/12/18 08:46:57;;;;;;;21.53;9.30;;;6.80;1.00;;;;;;5095499;28;20425;-74
2020/12/18 08:49:27;;;;;;;20.43;8.90;;;7.10;1.00;;;;;;5099849;28;20411;-75
2020/12/18 08:51:55;;;;;;;17.27;9.47;;;6.90;1.00;;;;;;5116052;28;20722;-77
2020/12/18 08:54:31;;;;;;;24.60;9.87;;;6.90;1.00;;;;;;5096387;28;20486;-77
2020/12/18 08:57:16;;;;;;;27.83;9.10;;;6.90;1.00;;;;;;5096120;28;20751;-77
2020/12/18 08:59:55;;;;;;;26.57;10.13;;;7.00;1.00;;;;;;5095997;28;20879;-77
2020/12/18 09:02:20;;;;;;;30.07;10.80;;;7.00;1.00;;;;;;5095669;28;20499;-77
2020/12/18 09:04:46;;;;;;;24.37;9.60;;;7.10;1.00;;;;;;5093613;28;20427;-77
2020/12/18 09:07:12;;;;;;;29.90;10.30;;;7.10;1.00;;;;;;5092927;28;20231;-77
2020/12/18 09:09:54;;;;;;;37.23;10.17;;;7.20;1.00;;;;;;5089790;28;20205;-77
2020/12/18 09:12:20;;;;;;;43.27;9.03;;;7.20;1.00;;;;;;5083496;28;20206;-77
2020/12/18 09:14:45;;;;;;;60.60;11.47;;;9.20;1.00;;;;;;5086117;28;20408;-78
2020/12/18 09:17:15;;;;;;;54.77;10.67;;;9.20;1.00;;;;;;5089500;28;20171;-78
2020/12/18 09:19:46;;;;;;;35.97;9.90;;;8.90;1.00;;;;;;5085137;28;20168;-77
2020/12/18 09:22:12;;;;;;;82.67;10.13;;;7.40;1.00;;;;;;5077981;28;20492;-77
2020/12/18 09:24:38;;;;;;;40.13;9.30;;;8.10;1.00;;;;;;5083975;28;20412;-77
2020/12/18 09:27:16;;;;;;;36.57;10.37;;;7.40;1.00;;;;;;5095306;28;20484;-77
2020/12/18 09:29:41;;;;;;;22.93;9.93;;;7.40;1.00;;;;;;5078963;28;20242;-77
2020/12/18 09:32:07;;;;;;;28.10;10.23;;;7.50;1.00;;;;;;5080438;28;20516;-78
2020/12/18 09:34:33;;;;;;;46.13;9.43;;;8.60;1.00;;;;;;5082523;28;20205;-77
2020/12/18 09:37:10;;;;;;;19.07;8.77;;;9.10;1.00;;;;;;5076858;28;20685;-77
2020/12/18 09:39:38;;;;;;;30.47;8.50;;;7.80;1.00;;;;;;5076282;28;20409;-78
2020/12/18 09:42:04;;;;;;;43.47;10.07;;;9.10;1.00;;;;;;5078763;28;20405;-77
2020/12/18 09:44:29;;;;;;;60.13;9.57;;;8.70;1.00;;;;;;5094792;28;20417;-77
2020/12/18 09:46:55;;;;;;;21.67;9.60;;;7.80;1.00;;;;;;5093263;28;20166;-77
2020/12/18 09:49:21;;;;;;;30.33;8.50;;;7.90;1.00;;;;;;5077614;28;20182;-77
2020/12/18 09:51:46;;;;;;;21.70;8.60;;;9.20;1.00;;;;;;5075302;28;20174;-75
2020/12/18 09:54:13;;;;;;;27.70;9.97;;;;;;;;;;5074536;28;20195;-75
2020/12/18 09:56:38;;;;;;;46.43;9.67;;;8.10;1.00;;;;;;5075868;28;20424;-75
2020/12/18 09:59:04;;;;;;;28.17;8.83;;;8.70;1.00;;;;;;5085748;28;20402;-75
2020/12/18 10:01:32;;;;;;;37.33;9.27;;;9.40;1.00;;;;;;5074552;28;20242;-75
2020/12/18 10:03:58;;;;;;;20.20;8.70;;;8.10;1.00;;;;;;5088238;28;20182;-75
2020/12/18 10:06:25;;;;;;;30.47;8.97;;;8.10;1.00;;;;;;5094819;28;20389;-77
2020/12/18 10:08:51;;;;;;;26.73;9.53;;;8.10;1.00;;;;;;5094700;28;20166;-77
2020/12/18 10:11:17;;;;;;;30.07;8.73;;;8.10;1.00;;;;;;5094257;28;20404;-77
2020/12/18 10:13:43;;;;;;;46.03;9.33;;;8.00;1.00;;;;;;5073698;28;20241;-77
2020/12/18 10:16:09;;;;;;;27.27;8.40;;;8.90;1.00;;;;;;5074169;28;20488;-77
2020/12/18 10:18:35;;;;;;;47.07;9.33;;;8.70;1.00;;;;;;5086897;28;20538;-77
2020/12/18 10:21:03;;;;;;;42.53;9.97;;;8.50;1.00;;;;;;5100312;28;20167;-77
2020/12/18 10:23:29;;;;;;;21.13;9.47;;;8.20;1.00;;;;;;5075826;28;20175;-75
2020/12/18 10:25:58;;;;;;;56.63;10.20;;;8.90;1.00;;;;;;5073992;28;20389;-74
2020/12/18 10:28:25;;;;;;;34.27;10.27;;;8.30;1.00;;;;;;5084274;28;20990;-75
2020/12/18 10:30:51;;;;;;;30.90;10.40;;;8.30;1.00;;;;;;5094024;28;20385;-75
2020/12/18 10:33:16;;;;;;;36.63;9.23;;;8.10;1.00;;;;;;5092783;28;20497;-75
2020/12/18 10:35:42;;;;;;;25.70;11.00;;;9.00;1.00;;;;;;5078554;28;20488;-75
2020/12/18 10:38:08;;;;;;;27.83;9.30;;;8.80;1.00;;;;;;5093168;28;20179;-74
2020/12/18 10:40:33;;;;;;;24.23;8.70;;;8.80;1.00;;;;;;5088384;28;20637;-75
2020/12/18 10:42:59;;;;;;;39.23;9.37;;;8.00;1.00;;;;;;5073681;28;20172;-79
2020/12/18 10:45:25;;;;;;;41.33;10.83;;;8.00;1.00;;;;;;5075188;28;20190;-75
2020/12/18 10:47:51;;;;;;;38.03;10.60;;;8.70;1.00;;;;;;5081465;28;20190;-75
2020/12/18 10:50:16;;;;;;;27.87;10.97;;;8.80;1.00;;;;;;5085620;28;20167;-74
2020/12/18 10:52:42;;;;;;;21.80;8.87;;;8.20;1.00;;;;;;5075402;28;20633;-74
2020/12/18 10:55:08;;;;;;;30.20;10.27;;;9.50;1.00;;;;;;5079106;28;20574;-75
2020/12/18 10:57:33;;;;;;;67.20;26.93;;;8.30;1.00;;;;;;5093720;28;20159;-75
2020/12/18 10:59:59;;;;;;;24.97;9.67;;;9.30;1.00;;;;;;5081772;28;20291;-75
2020/12/18 11:02:25;;;;;;;32.83;9.80;;;8.50;1.00;;;;;;5073315;28;20628;-75
2020/12/18 11:04:50;;;;;;;23.97;8.90;;;10.10;1.00;;;;;;5073304;28;20167;-75
2020/12/18 11:07:16;;;;;;;26.00;9.40;;;8.70;1.00;;;;;;5090939;28;20362;-75
2020/12/18 11:09:42;;;;;;;26.53;10.10;;;8.40;1.00;;;;;;5092795;28;20235;-75
2020/12/18 11:12:07;;;;;;;20.90;9.00;;;9.50;1.00;;;;;;5075764;28;20205;-74
2020/12/18 11:14:33;;;;;;;33.80;10.97;;;9.90;1.00;;;;;;5093401;28;20190;-74
2020/12/18 11:16:59;;;;;;;36.63;9.67;;;9.80;1.00;;;;;;5094804;28;20593;-75
2020/12/18 11:19:24;;;;;;;42.03;8.90;;;8.70;1.00;;;;;;5075986;28;20182;-75
2020/12/18 11:21:50;;;;;;;26.50;9.07;;;9.80;1.00;;;;;;5082290;28;20175;-74
2020/12/18 11:24:16;;;;;;;29.60;9.40;;;9.10;1.00;;;;;;5113755;28;20693;-77
2020/12/18 11:26:42;;;;;;;26.87;10.80;;;9.60;1.00;;;;;;5113719;28;20162;-77
2020/12/18 11:29:08;;;;;;;21.93;9.27;;;8.80;1.00;;;;;;5113555;28;20426;-77
2020/12/18 11:31:39;;;;;;;25.67;10.07;;;8.70;1.00;;;;;;5113682;28;20863;-77
2020/12/18 11:34:06;;;;;;;24.27;10.40;;;8.70;1.00;;;;;;5113429;28;20446;-77
2020/12/18 11:36:34;;;;;;;17.10;8.23;;;8.70;1.00;;;;;;5113838;28;20506;-77
2020/12/18 11:38:59;;;;;;;32.70;9.07;;;8.70;1.00;;;;;;5113827;28;20730;-74
2020/12/18 11:41:25;;;;;;;35.13;9.70;;;8.70;1.00;;;;;;5113446;28;20536;-74
2020/12/18 11:43:51;;;;;;;28.50;10.00;;;8.90;1.00;;;;;;5112804;28;20391;-74
2020/12/18 11:46:16;;;;;;;22.43;9.90;;;9.10;1.00;;;;;;5113624;28;20246;-74
2020/12/18 11:48:42;;;;;;;25.87;10.87;;;9.40;1.00;;;;;;5101867;28;20625;-75
2020/12/18 11:51:07;;;;;;;23.30;9.10;;;9.60;1.00;;;;;;5092977;28;20235;-74
2020/12/18 11:53:36;;;;;;;37.57;10.70;;;9.20;1.00;;;;;;5092811;28;20194;-77
2020/12/18 11:56:02;;;;;;;48.20;10.67;;;8.90;1.00;;;;;;5093168;28;20150;-77
2020/12/18 11:58:28;;;;;;;28.00;10.60;;;8.50;1.00;;;;;;5089552;28;20429;-77
2020/12/18 12:00:56;;;;;;;51.73;13.43;;;8.60;1.00;;;;;;5072754;28;20413;-77
2020/12/18 12:03:22;;;;;;;30.70;12.17;;;9.00;1.00;;;;;;5072833;28;20155;-77
2020/12/18 12:05:47;;;;;;;44.40;10.90;;;9.40;1.00;;;;;;5071418;28;20813;-78
2020/12/18 12:08:13;;;;;;;24.60;9.60;;;9.00;1.00;;;;;;5072741;28;20459;-77
2020/12/18 12:10:39;;;;;;;26.53;9.67;;;9.10;1.00;;;;;;5072147;28;20242;-77
2020/12/18 12:13:04;;;;;;;26.17;10.53;;;9.60;1.00;;;;;;5072868;28;20244;-78
2020/12/18 12:15:30;;;;;;;45.47;10.07;;;8.30;1.00;;;;;;5072427;28;20167;-77
2020/12/18 12:17:55;;;;;;;30.90;10.23;;;8.30;1.00;;;;;;5072572;28;20155;-77
2020/12/18 12:20:21;;;;;;;29.37;10.37;;;9.00;1.00;;;;;;5072638;28;20219;-77
2020/12/18 12:22:47;;;;;;;28.80;11.30;;;9.70;1.00;;;;;;5072872;28;20159;-75
2020/12/18 12:25:12;;;;;;;42.00;11.00;;;8.30;1.00;;;;;;5072344;28;20160;-74
2020/12/18 12:27:39;;;;;;;39.33;10.93;;;8.30;1.00;;;;;;5071089;28;20198;-73
2020/12/18 12:30:10;;;;;;;27.73;11.07;;;8.40;1.00;;;;;;5075658;28;20194;-74
2020/12/18 12:32:38;;;;;;;30.23;11.50;;;8.40;1.00;;;;;;5073141;28;20445;-74
2020/12/18 12:35:09;;;;;;;28.60;11.20;;;8.50;1.00;;;;;;5092761;28;20415;-74
2020/12/18 12:37:45;;;;;;;24.50;11.33;;;8.50;1.00;;;;;;5073237;28;20397;-76
2020/12/18 12:40:14;;;;;;;32.47;12.20;;;8.50;1.00;;;;;;5073900;28;20413;-75
2020/12/18 12:42:40;;;;;;;29.43;11.93;;;8.40;1.00;;;;;;5087662;28;20982;-74
2020/12/18 12:45:09;;;;;;;33.73;10.30;;;8.50;1.00;;;;;;5075916;28;20499;-74
2020/12/18 12:47:34;;;;;;;33.53;10.53;;;8.40;1.00;;;;;;5081319;28;20175;-74
2020/12/18 12:50:00;;;;;;;32.47;11.53;;;8.60;1.00;;;;;;5093184;28;20461;-74
2020/12/18 12:52:26;;;;;;;29.23;12.30;;;8.70;1.00;;;;;;5090962;28;20494;-74
2020/12/18 12:55:14;;;;;;;38.80;11.70;;;8.90;1.00;;;;;;5094474;28;20178;-77
2020/12/18 12:57:44;;;;;;;29.27;10.90;;;8.50;1.00;;;;;;5079874;28;20413;-77
2020/12/18 13:00:20;;;;;;;33.43;10.90;;;8.50;1.00;;;;;;5076590;28;20377;-76
2020/12/18 13:02:50;;;;;;;32.07;10.47;;;8.60;1.00;;;;;;5076897;28;20393;-76
2020/12/18 13:05:21;;;;;;;35.07;10.13;;;8.60;1.00;;;;;;5076473;28;20393;-76
2020/12/18 13:07:53;;;;;;;30.13;9.77;;;8.60;1.00;;;;;;5086279;28;20416;-77
2020/12/18 13:10:21;;;;;;;25.10;10.80;;;8.50;1.00;;;;;;5096658;28;20432;-74
2020/12/18 13:12:51;;;;;;;44.27;9.80;;;8.70;1.00;;;;;;5096151;28;20750;-74
2020/12/18 13:15:27;;;;;;;30.43;10.60;;;8.50;1.00;;;;;;5095071;28;20784;-75
2020/12/18 13:17:52;;;;;;;25.77;9.67;;;8.60;1.00;;;;;;5096505;28;20876;-74
2020/12/18 13:20:20;;;;;;;33.00;12.07;;;8.50;1.00;;;;;;5096424;28;20514;-74
2020/12/18 13:26:15;;;;;;;32.37;11.53;;;8.60;1.00;;;;;;5080230;28;20412;-77
2020/12/18 13:28:44;;;;;;;34.83;10.80;;;8.60;1.00;;;;;;5084523;28;20439;-77